Time;durP1;ratioP1;P1;durP2;ratioP2;P2;SDS_P1;SDS_P2;PMS_P1;PMS_P2;Temp;Humidity;BMP_temperature;BMP_pressure;BME280_temperature;BME280_humidity;BME280_pressure;Samples;Min_cycle;Max_cycle;Signal;HPM_P1;HPM_P2
2022/04/12 00:01:16;;;;;;;3.15;2.10;;;;;;;-0.67;90.10;100130.09;5018188;28;20194;-59
2022/04/12 00:03:46;;;;;;;3.83;2.92;;;;;;;-0.65;90.05;100128.41;5018256;28;20085;-59
2022/04/12 00:06:17;;;;;;;4.25;2.60;;;;;;;-0.63;89.79;100126.75;5018042;28;20089;-59
2022/04/12 00:08:47;;;;;;;3.83;2.65;;;;;;;-0.59;89.63;100123.47;5018115;28;20072;-59
2022/04/12 00:11:18;;;;;;;2.85;2.15;;;;;;;-0.57;89.74;100121.81;5017962;28;20061;-58
2022/04/12 00:13:49;;;;;;;3.58;2.35;;;;;;;-0.55;89.65;100124.41;5018028;28;20046;-59
2022/04/12 00:16:21;;;;;;;3.78;2.08;;;;;;;-0.57;89.52;100132.06;5017816;28;20358;-59
2022/04/12 00:19:06;;;;;;;2.65;2.00;;;;;;;-0.55;89.45;100115.03;5017899;28;20440;-59
2022/04/12 00:21:38;;;;;;;2.67;2.03;;;;;;;-0.53;89.46;100115.91;5018202;28;20066;-59
2022/04/12 00:24:09;;;;;;;2.50;2.05;;;;;;;-0.55;89.20;100114.13;5017864;28;20065;-59
2022/04/12 00:26:40;;;;;;;4.40;2.50;;;;;;;-0.53;89.50;100113.34;5017701;28;20053;-59
2022/04/12 00:29:10;;;;;;;4.72;2.67;;;;;;;-0.53;89.39;100112.47;5017521;28;20298;-59
2022/04/12 00:31:43;;;;;;;3.10;2.22;;;;;;;-0.54;89.60;100110.75;5017831;28;20463;-59
2022/04/12 00:34:14;;;;;;;8.70;3.72;;;;;;;-0.51;89.56;100116.81;5017836;28;20348;-59
2022/04/12 00:36:45;;;;;;;5.38;3.33;;;;;;;-0.53;89.35;100118.47;5017436;28;20289;-59
2022/04/12 00:39:15;;;;;;;5.43;2.97;;;;;;;-0.56;89.61;100118.41;5017683;28;20049;-59
2022/04/12 00:41:46;;;;;;;4.97;2.88;;;;;;;-0.49;89.50;100140.84;5017439;28;20186;-59
2022/04/12 00:44:17;;;;;;;5.10;2.47;;;;;;;-0.48;89.70;100146.81;5017953;28;20243;-59
2022/04/12 00:46:49;;;;;;;5.55;2.70;;;;;;;-0.50;89.75;100144.25;5017194;28;20061;-59
2022/04/12 00:49:20;;;;;;;6.88;2.58;;;;;;;-0.47;89.81;100134.03;5017781;28;20124;-59
2022/04/12 00:51:50;;;;;;;3.40;2.20;;;;;;;-0.45;89.67;100141.78;5017877;28;20279;-59
2022/04/12 00:54:23;;;;;;;5.28;2.38;;;;;;;-0.46;89.35;100151.19;5017696;28;20050;-59
2022/04/12 00:56:54;;;;;;;5.43;2.47;;;;;;;-0.47;89.43;100144.31;5017628;28;20421;-59
2022/04/12 00:59:27;;;;;;;3.03;2.10;;;;;;;-0.41;89.32;100153.88;5017675;28;20065;-58
2022/04/12 01:02:00;;;;;;;3.25;2.30;;;;;;;-0.81;89.26;100090.38;5017485;28;20066;-59
2022/04/12 01:04:31;;;;;;;2.72;1.92;;;;;;;-0.64;89.38;100117.34;5015868;28;20057;-60
2022/04/12 01:07:03;;;;;;;3.08;1.90;;;;;;;-0.41;89.29;100145.31;5017610;28;20370;-60
2022/04/12 01:09:33;;;;;;;2.85;1.75;;;;;;;-0.41;89.02;100153.00;5017987;28;20100;-59
2022/04/12 01:12:09;;;;;;;4.75;1.98;;;;;;;-0.38;89.15;100147.94;5017558;28;20109;-59
2022/04/12 01:14:40;;;;;;;3.28;1.90;;;;;;;-0.52;89.19;100109.97;5017326;28;20054;-59
2022/04/12 01:17:12;;;;;;;3.63;2.33;;;;;;;-0.27;89.21;100146.53;5017328;28;20252;-59
2022/04/12 01:19:43;;;;;;;3.05;2.10;;;;;;;-0.53;88.61;100103.06;5017262;28;20084;-59
2022/04/12 01:22:19;;;;;;;4.65;2.20;;;;;;;-0.22;88.80;100130.41;5017101;28;20316;-59
2022/04/12 01:24:52;;;;;;;2.33;1.85;;;;;;;-0.15;88.57;100120.28;5017079;28;20358;-59
2022/04/12 01:27:23;;;;;;;3.95;2.15;;;;;;;-0.12;88.62;100123.81;5012195;28;20058;-59
2022/04/12 01:29:55;;;;;;;3.40;1.92;;;;;;;-0.06;88.44;100116.22;5015771;28;20089;-59
2022/04/12 01:32:26;;;;;;;2.72;1.88;;;;;;;0.03;88.15;100107.03;5016126;28;20058;-58
2022/04/12 01:34:57;;;;;;;2.92;2.15;;;;;;;0.11;87.66;100087.50;5016155;28;20038;-59
2022/04/12 01:37:30;;;;;;;3.42;2.05;;;;;;;0.23;87.37;100076.66;5010914;28;20076;-59
2022/04/12 01:40:02;;;;;;;2.67;2.00;;;;;;;0.31;87.14;100075.97;5011951;28;20337;-59
2022/04/12 01:42:33;;;;;;;2.75;2.10;;;;;;;0.43;86.78;100076.25;5016204;28;20053;-58
2022/04/12 01:45:04;;;;;;;2.88;2.00;;;;;;;0.45;85.77;100068.56;5016440;28;20260;-59
2022/04/12 01:47:35;;;;;;;3.65;1.80;;;;;;;0.51;85.81;100072.97;5016585;28;20096;-58
2022/04/12 01:50:08;;;;;;;2.63;1.80;;;;;;;0.49;85.38;100074.63;5019662;28;20248;-58
2022/04/12 01:52:39;;;;;;;4.75;2.40;;;;;;;0.53;85.60;100072.16;5017121;28;20042;-58
2022/04/12 01:55:12;;;;;;;4.53;2.03;;;;;;;0.39;85.02;100022.16;5017552;28;20053;-57
2022/04/12 01:57:43;;;;;;;3.85;2.00;;;;;;;0.73;84.98;100054.56;5017480;28;20354;-59
2022/04/12 02:00:14;;;;;;;2.17;1.63;;;;;;;0.88;84.92;100058.28;5019239;28;20140;-59
2022/04/12 02:02:45;;;;;;;3.67;1.60;;;;;;;0.93;83.69;100061.81;5019538;28;20335;-58
2022/04/12 02:05:16;;;;;;;3.45;1.90;;;;;;;0.85;83.46;100065.09;5019351;28;20054;-57
2022/04/12 02:07:46;;;;;;;8.65;3.00;;;;;;;0.78;83.89;100073.53;5019124;28;20109;-57
2022/04/12 02:10:21;;;;;;;5.47;2.10;;;;;;;0.63;83.68;100047.50;5019159;28;20045;-57
2022/04/12 02:12:52;;;;;;;3.72;1.70;;;;;;;0.80;83.50;100086.41;5018914;28;20054;-57
2022/04/12 02:15:23;;;;;;;5.95;3.42;;;;;;;0.83;83.59;100089.94;5017080;28;20100;-58
2022/04/12 02:17:54;;;;;;;3.45;2.00;;;;;;;0.93;83.01;100102.97;5019040;28;20060;-58
2022/04/12 02:20:25;;;;;;;2.33;1.83;;;;;;;0.80;83.20;100092.44;5018917;28;20089;-59
2022/04/12 02:22:55;;;;;;;2.47;1.73;;;;;;;0.68;83.30;100071.63;5018830;28;20114;-57
2022/04/12 02:25:28;;;;;;;2.80;1.73;;;;;;;0.82;83.09;100095.03;5019842;28;20077;-58
2022/04/12 02:27:58;;;;;;;3.28;2.03;;;;;;;0.73;83.14;100090.59;5019844;28;20045;-57
2022/04/12 02:30:29;;;;;;;4.47;1.90;;;;;;;0.80;83.14;100084.72;5019793;28;20057;-58
2022/04/12 02:33:00;;;;;;;4.20;1.90;;;;;;;0.69;83.30;100096.47;5019610;28;20062;-57
2022/04/12 02:35:31;;;;;;;3.45;2.08;;;;;;;0.61;83.94;100100.59;5019577;28;20093;-58
2022/04/12 02:38:01;;;;;;;4.60;1.98;;;;;;;0.63;84.03;100102.38;5019101;28;20061;-57
2022/04/12 02:40:33;;;;;;;2.90;1.90;;;;;;;0.72;84.23;100104.25;5019679;28;20084;-58
2022/04/12 02:43:04;;;;;;;4.55;2.05;;;;;;;0.69;83.78;100093.91;5019718;28;20072;-58
2022/04/12 02:45:35;;;;;;;2.83;1.73;;;;;;;0.68;83.46;100083.63;5016878;28;20124;-58
2022/04/12 02:48:08;;;;;;;4.05;2.22;;;;;;;0.72;84.05;100078.53;5017071;28;20101;-59
2022/04/12 02:50:39;;;;;;;4.13;1.80;;;;;;;0.72;83.45;100093.97;5015984;28;20088;-60
2022/04/12 02:53:10;;;;;;;3.90;1.98;;;;;;;0.71;83.83;100115.38;5020894;28;20052;-59
2022/04/12 02:55:42;;;;;;;9.88;3.97;;;;;;;0.66;83.89;100116.13;5024712;28;20305;-59
2022/04/12 02:58:13;;;;;;;3.95;2.42;;;;;;;0.56;83.87;100127.94;5024726;28;20056;-57
2022/04/12 03:00:44;;;;;;;4.90;2.33;;;;;;;0.43;84.11;100122.50;5022338;28;20113;-60
2022/04/12 03:03:15;;;;;;;4.15;2.15;;;;;;;0.42;84.64;100125.94;5024323;28;20225;-58
2022/04/12 03:05:45;;;;;;;4.38;1.95;;;;;;;0.47;84.60;100117.44;5024837;28;20574;-58
2022/04/12 03:08:16;;;;;;;6.07;2.38;;;;;;;0.49;84.51;100126.91;5024438;28;20340;-57
2022/04/12 03:10:48;;;;;;;3.58;2.08;;;;;;;0.45;84.77;100119.09;5024556;28;20056;-60
2022/04/12 03:13:19;;;;;;;5.78;2.47;;;;;;;0.38;84.75;100118.97;5024096;28;20049;-59
2022/04/12 03:15:50;;;;;;;4.18;2.10;;;;;;;0.35;85.01;100112.88;5024187;28;20091;-59
2022/04/12 03:18:21;;;;;;;7.07;2.17;;;;;;;0.39;85.93;100109.56;5023322;28;20053;-59
2022/04/12 03:20:51;;;;;;;4.80;2.35;;;;;;;0.50;85.63;100102.97;5024551;28;20072;-59
2022/04/12 03:23:22;;;;;;;4.60;1.85;;;;;;;0.48;85.30;100108.91;5024212;28;20056;-60
2022/04/12 03:25:54;;;;;;;3.92;2.35;;;;;;;0.49;85.47;100115.78;5024337;28;20065;-59
2022/04/12 03:28:25;;;;;;;3.83;1.90;;;;;;;0.46;84.92;100106.28;5024079;28;20049;-59
2022/04/12 03:30:56;;;;;;;6.10;2.30;;;;;;;0.35;85.32;100107.72;5024329;28;20073;-59
2022/04/12 03:33:27;;;;;;;7.65;1.77;;;;;;;0.38;85.28;100108.69;5023619;28;20442;-59
2022/04/12 03:35:57;;;;;;;2.35;2.15;;;;;;;0.46;85.56;100118.28;5025011;28;20315;-59
2022/04/12 03:38:28;;;;;;;5.28;1.98;;;;;;;0.39;85.24;100122.41;5025133;28;20046;-59
2022/04/12 03:41:03;;;;;;;4.10;2.03;;;;;;;0.34;85.40;100117.16;5024950;28;20054;-58
2022/04/12 03:43:33;;;;;;;3.70;2.40;;;;;;;0.40;85.25;100107.03;5024936;28;20046;-59
2022/04/12 03:46:04;;;;;;;6.05;2.20;;;;;;;0.36;85.21;100100.06;5025322;28;20369;-58
2022/04/12 03:48:35;;;;;;;3.38;2.05;;;;;;;0.39;85.39;100099.28;5024247;28;20069;-59
2022/04/12 03:51:05;;;;;;;5.70;2.20;;;;;;;0.37;85.11;100096.66;5022975;28;20511;-58
2022/04/12 03:53:37;;;;;;;2.40;1.73;;;;;;;0.40;85.35;100091.59;5023939;28;20053;-59
2022/04/12 03:56:10;;;;;;;6.10;1.98;;;;;;;0.46;85.15;100087.44;5023563;28;20258;-59
2022/04/12 03:58:40;;;;;;;3.38;2.03;;;;;;;0.40;85.25;100050.47;5024528;28;20148;-58
2022/04/12 04:01:11;;;;;;;8.55;2.20;;;;;;;0.56;85.40;100081.66;5021999;28;20050;-58
2022/04/12 04:03:43;;;;;;;3.00;2.05;;;;;;;0.66;85.16;100087.84;5023827;28;20042;-58
2022/04/12 04:06:13;;;;;;;3.72;2.05;;;;;;;0.65;84.82;100102.41;5023981;28;20048;-58
2022/04/12 04:08:44;;;;;;;4.70;2.30;;;;;;;0.64;84.57;100095.53;5024463;28;20049;-58
2022/04/12 04:11:16;;;;;;;5.00;2.20;;;;;;;0.62;84.72;100102.34;5023363;28;20099;-58
2022/04/12 04:13:47;;;;;;;3.58;2.15;;;;;;;0.30;84.68;100043.41;5024576;28;20058;-59
2022/04/12 04:16:17;;;;;;;5.18;2.03;;;;;;;0.58;84.68;100090.25;5024165;28;20084;-59
2022/04/12 04:18:48;;;;;;;4.82;2.00;;;;;;;0.52;85.01;100084.97;5024167;28;20081;-58
2022/04/12 04:21:19;;;;;;;3.40;2.10;;;;;;;0.51;84.63;100098.69;5024193;28;20079;-58
2022/04/12 04:23:49;;;;;;;4.70;1.92;;;;;;;0.43;84.63;100086.53;5023782;28;20294;-60
2022/04/12 04:26:22;;;;;;;3.15;2.15;;;;;;;0.38;85.20;100082.13;5023834;28;20065;-59
2022/04/12 04:28:52;;;;;;;4.13;1.90;;;;;;;0.40;85.24;100065.91;5023592;28;20075;-59
2022/04/12 04:31:23;;;;;;;4.97;2.28;;;;;;;0.43;85.03;100076.25;5021863;28;20054;-58
2022/04/12 04:33:58;;;;;;;4.70;2.15;;;;;;;0.43;85.00;100065.09;5024106;28;20073;-60
2022/04/12 04:36:29;;;;;;;7.43;2.58;;;;;;;0.46;85.35;100080.59;5023841;28;20328;-59
2022/04/12 04:39:00;;;;;;;7.15;3.05;;;;;;;0.49;85.34;100084.91;5023561;28;20061;-59
2022/04/12 04:41:32;;;;;;;6.22;2.30;;;;;;;0.41;84.73;100088.19;5023905;28;20057;-58
2022/04/12 04:44:03;;;;;;;5.55;2.30;;;;;;;0.34;85.48;100106.88;5024531;28;20217;-58
2022/04/12 04:46:33;;;;;;;2.45;1.73;;;;;;;0.26;85.06;100098.13;5024270;28;20080;-58
2022/04/12 04:49:04;;;;;;;4.88;2.38;;;;;;;0.25;85.52;100111.84;5023893;28;20061;-59
2022/04/12 04:51:36;;;;;;;4.45;2.33;;;;;;;0.25;85.87;100119.53;5023975;28;20049;-59
2022/04/12 04:54:07;;;;;;;3.60;2.10;;;;;;;0.20;85.82;100116.84;5024296;28;20339;-58
2022/04/12 04:56:39;;;;;;;4.07;2.67;;;;;;;0.14;86.08;100118.41;5024507;28;20103;-58
2022/04/12 04:59:12;;;;;;;6.20;2.40;;;;;;;0.02;87.12;100118.13;5023811;28;20114;-58
2022/04/12 05:01:42;;;;;;;5.80;2.47;;;;;;;0.05;86.94;100133.59;5023833;28;20081;-58
2022/04/12 05:04:13;;;;;;;6.22;2.65;;;;;;;0.03;87.06;100131.00;5023776;28;20287;-58
2022/04/12 05:06:45;;;;;;;7.35;2.90;;;;;;;0.04;86.80;100116.47;5023485;28;20064;-58
2022/04/12 05:09:15;;;;;;;7.82;2.47;;;;;;;0.04;87.05;100126.72;5023684;28;20136;-58
2022/04/12 05:11:47;;;;;;;6.28;2.63;;;;;;;0.01;86.99;100126.66;5023897;28;20247;-59
2022/04/12 05:14:18;;;;;;;9.23;2.78;;;;;;;-0.06;87.20;100118.78;5023649;28;20077;-59
2022/04/12 05:16:49;;;;;;;6.38;2.50;;;;;;;-0.15;87.65;100123.72;5023520;28;20116;-58
2022/04/12 05:19:19;;;;;;;8.02;2.67;;;;;;;-0.19;87.49;100134.75;5023416;28;20053;-59
2022/04/12 05:21:50;;;;;;;12.43;3.38;;;;;;;-0.22;88.15;100132.97;5024172;28;20073;-59
2022/04/12 05:24:21;;;;;;;8.50;3.33;;;;;;;-0.19;88.25;100123.63;5026613;28;20064;-59
2022/04/12 05:26:53;;;;;;;8.18;3.25;;;;;;;-0.15;88.01;100113.47;5027619;28;20054;-59
2022/04/12 05:29:24;;;;;;;6.28;2.90;;;;;;;-0.22;88.33;100124.41;5027278;28;20061;-58
2022/04/12 05:31:54;;;;;;;6.90;3.35;;;;;;;-0.26;88.46;100130.28;5027200;28;20042;-59
2022/04/12 05:34:25;;;;;;;6.93;3.22;;;;;;;-0.32;88.74;100148.13;5027763;28;20050;-59
2022/04/12 05:36:56;;;;;;;14.50;3.42;;;;;;;-0.63;89.45;100113.06;5027101;28;20057;-59
2022/04/12 05:39:27;;;;;;;11.15;3.53;;;;;;;-0.41;89.76;100163.28;5027157;28;20049;-59
2022/04/12 05:42:00;;;;;;;15.55;4.53;;;;;;;-0.37;89.93;100165.09;5027028;28;20052;-59
2022/04/12 05:44:33;;;;;;;9.38;4.20;;;;;;;-0.84;90.09;100109.09;5027043;28;20235;-58
2022/04/12 05:47:04;;;;;;;12.88;4.68;;;;;;;-0.32;89.89;100173.78;5027118;28;20328;-58
2022/04/12 05:49:34;;;;;;;14.35;4.32;;;;;;;-0.31;90.02;100175.50;5026901;28;20302;-59
2022/04/12 05:52:06;;;;;;;11.32;4.38;;;;;;;-0.35;89.89;100173.69;5027575;28;20336;-59
2022/04/12 05:54:36;;;;;;;7.40;4.18;;;;;;;-0.43;89.59;100163.22;5027061;28;20153;-59
2022/04/12 05:57:09;;;;;;;10.63;3.78;;;;;;;-0.45;89.79;100158.06;5027119;28;20073;-59
2022/04/12 05:59:40;;;;;;;11.52;3.78;;;;;;;-0.43;90.23;100146.13;5027125;28;20060;-58
2022/04/12 06:02:10;;;;;;;8.02;4.35;;;;;;;-0.43;89.92;100145.25;5026629;28;20080;-58
2022/04/12 06:04:41;;;;;;;8.65;3.72;;;;;;;-0.46;89.97;100146.03;5027087;28;20046;-58
2022/04/12 06:07:11;;;;;;;6.80;3.38;;;;;;;-0.53;90.11;100146.69;5026857;28;20048;-58
2022/04/12 06:09:42;;;;;;;11.15;3.38;;;;;;;-0.55;90.63;100150.94;5026358;28;20124;-58
2022/04/12 06:12:15;;;;;;;8.32;3.63;;;;;;;-0.52;90.48;100140.75;5026777;28;20081;-59
2022/04/12 06:14:45;;;;;;;8.32;3.75;;;;;;;-0.59;90.32;100149.13;5026680;28;20053;-58
2022/04/12 06:17:16;;;;;;;10.27;3.75;;;;;;;-0.55;90.50;100150.94;5026815;28;20109;-59
2022/04/12 06:19:47;;;;;;;11.85;3.50;;;;;;;-0.55;90.59;100143.25;5026407;28;20046;-58
2022/04/12 06:22:17;;;;;;;10.48;2.85;;;;;;;-0.52;90.52;100127.06;5025831;28;20053;-58
2022/04/12 06:24:48;;;;;;;9.35;3.35;;;;;;;-0.49;90.43;100151.09;5026142;28;20164;-59
2022/04/12 06:27:29;;;;;;;8.40;4.40;;;;;;;-0.51;90.31;100155.31;5026047;28;20077;-59
2022/04/12 06:30:00;;;;;;;9.23;3.35;;;;;;;-0.50;89.81;100133.09;5026491;28;20693;-58
2022/04/12 06:32:30;;;;;;;6.13;3.13;;;;;;;-0.46;89.76;100125.50;5026088;28;20041;-58
2022/04/12 06:35:01;;;;;;;5.55;3.13;;;;;;;-0.44;89.83;100116.16;5025747;28;20319;-59
2022/04/12 06:37:32;;;;;;;5.60;2.92;;;;;;;-0.39;89.87;100105.13;5026124;28;20060;-58
2022/04/12 06:40:03;;;;;;;8.85;3.25;;;;;;;-0.87;89.29;100014.97;5025876;28;20045;-58
2022/04/12 06:42:36;;;;;;;6.70;2.67;;;;;;;-0.44;89.42;100123.84;5026231;28;20546;-58
2022/04/12 06:45:11;;;;;;;6.10;3.15;;;;;;;-0.63;89.52;100093.41;5026035;28;20291;-58
2022/04/12 06:47:42;;;;;;;11.02;3.72;;;;;;;-0.40;89.70;100129.94;5025964;28;20058;-58
2022/04/12 06:50:13;;;;;;;12.60;3.67;;;;;;;-0.63;89.92;100101.09;5025992;28;20120;-58
2022/04/12 06:52:44;;;;;;;11.93;3.28;;;;;;;-0.45;89.54;100137.53;5025680;28;20049;-58
2022/04/12 06:55:16;;;;;;;9.50;3.88;;;;;;;-0.39;89.85;100138.50;5025958;28;20045;-58
2022/04/12 06:57:48;;;;;;;7.13;3.17;;;;;;;-0.40;90.04;100149.59;5025809;28;20042;-59
2022/04/12 07:00:20;;;;;;;10.55;3.28;;;;;;;-0.68;89.83;100103.53;5026128;28;20042;-58
2022/04/12 07:02:51;;;;;;;13.13;3.40;;;;;;;-0.46;89.85;100153.75;5025627;28;20065;-59
2022/04/12 07:05:22;;;;;;;13.15;3.70;;;;;;;-0.48;90.08;100163.09;5025329;28;20058;-59
2022/04/12 07:07:54;;;;;;;15.43;4.10;;;;;;;-0.48;90.12;100160.53;5025364;28;20128;-58
2022/04/12 07:10:25;;;;;;;7.82;3.17;;;;;;;-0.54;90.31;100167.22;5025598;28;20084;-58
2022/04/12 07:12:57;;;;;;;13.80;3.83;;;;;;;-0.57;90.57;100172.28;5025578;28;20092;-58
2022/04/12 07:15:28;;;;;;;12.63;3.78;;;;;;;-0.60;90.78;100162.78;5025213;28;20404;-58
2022/04/12 07:17:59;;;;;;;9.15;3.63;;;;;;;-0.68;90.96;100174.53;5025462;28;20061;-58
2022/04/12 07:20:30;;;;;;;16.52;4.60;;;;;;;-0.73;90.98;100173.53;5025398;28;20062;-58
2022/04/12 07:23:00;;;;;;;16.55;4.45;;;;;;;-0.78;91.85;100172.53;5025275;28;20085;-58
2022/04/12 07:25:31;;;;;;;17.23;4.47;;;;;;;-0.92;91.56;100160.19;5024948;28;20070;-58
2022/04/12 07:28:03;;;;;;;9.82;3.30;;;;;;;-0.73;91.82;100201.75;5024845;28;20053;-59
2022/04/12 07:30:34;;;;;;;12.05;4.82;;;;;;;-0.74;92.02;100200.03;5025244;28;20045;-58
2022/04/12 07:33:19;;;;;;;15.57;5.40;;;;;;;-0.73;91.60;100194.06;5025006;28;20251;-58
2022/04/12 07:35:50;;;;;;;12.25;3.40;;;;;;;-0.74;91.79;100192.34;5024284;28;20104;-59
2022/04/12 07:38:20;;;;;;;8.13;3.60;;;;;;;-0.75;91.55;100178.63;5024182;28;20053;-58
2022/04/12 07:40:53;;;;;;;11.27;3.85;;;;;;;-0.78;91.94;100172.53;5024121;28;20065;-58
2022/04/12 07:43:25;;;;;;;6.53;3.67;;;;;;;-0.78;92.02;100172.53;5024730;28;20061;-58
2022/04/12 07:45:56;;;;;;;11.00;4.20;;;;;;;-0.79;92.18;100175.94;5023644;28;20049;-58
2022/04/12 07:48:47;;;;;;;13.18;4.63;;;;;;;-0.76;92.40;100170.88;5024703;28;20421;-58
2022/04/12 07:51:17;;;;;;;7.63;3.20;;;;;;;-0.75;91.88;100167.47;5024804;28;20332;-58
2022/04/12 07:53:48;;;;;;;18.52;4.35;;;;;;;-0.76;92.28;100165.75;5024579;28;20121;-58
2022/04/12 07:56:19;;;;;;;8.27;3.58;;;;;;;-0.76;92.23;100170.88;5024309;28;20121;-58
2022/04/12 07:58:51;;;;;;;12.95;3.10;;;;;;;-0.77;92.15;100179.44;5024618;28;20053;-58
2022/04/12 08:01:22;;;;;;;13.00;3.67;;;;;;;-0.74;91.81;100174.38;5024469;28;20112;-58
2022/04/12 08:03:53;;;;;;;5.88;3.33;;;;;;;-0.74;91.65;100184.63;5024440;28;20053;-58
2022/04/12 08:06:23;;;;;;;7.55;2.75;;;;;;;-0.81;91.84;100190.41;5024485;28;20088;-58
2022/04/12 08:08:54;;;;;;;11.30;3.00;;;;;;;-0.83;92.12;100185.22;5023712;28;20053;-58
2022/04/12 08:11:24;;;;;;;5.30;2.50;;;;;;;-0.87;92.01;100179.16;5024339;28;20121;-59
2022/04/12 08:13:57;;;;;;;8.60;3.20;;;;;;;-0.90;92.26;100179.06;5024219;28;20254;-59
2022/04/12 08:16:27;;;;;;;12.88;3.85;;;;;;;-0.96;92.50;100178.88;5024659;28;20058;-59
2022/04/12 08:18:58;;;;;;;12.38;3.67;;;;;;;-0.95;92.46;100175.50;5024233;28;20229;-58
2022/04/12 08:21:35;;;;;;;23.15;4.55;;;;;;;-0.92;92.70;100190.97;5024230;28;20120;-58
2022/04/12 08:24:08;;;;;;;19.17;4.35;;;;;;;-1.00;92.90;100187.34;5024198;28;20046;-59
2022/04/12 08:26:39;;;;;;;15.02;3.47;;;;;;;-0.99;92.87;100194.19;5024083;28;20057;-58
2022/04/12 08:29:11;;;;;;;9.80;4.10;;;;;;;-1.02;93.40;100173.59;5024653;28;20061;-58
2022/04/12 08:31:42;;;;;;;10.30;4.80;;;;;;;-1.03;93.20;100184.66;5024346;28;20374;-59
2022/04/12 08:34:12;;;;;;;22.65;3.28;;;;;;;-1.00;93.42;100187.34;5024056;28;20121;-58
2022/04/12 08:36:43;;;;;;;16.60;4.10;;;;;;;-1.03;93.67;100192.34;5023993;28;20052;-58
2022/04/12 08:39:14;;;;;;;9.15;3.35;;;;;;;-1.02;93.71;100191.53;5023974;28;20137;-58
2022/04/12 08:41:46;;;;;;;14.32;4.78;;;;;;;-1.01;93.84;100206.09;5024148;28;20068;-59
2022/04/12 08:44:19;;;;;;;21.15;5.13;;;;;;;-0.98;93.55;100201.06;5023964;28;20042;-58
2022/04/12 08:46:50;;;;;;;19.20;4.85;;;;;;;-0.98;93.71;100211.31;5023811;28;20060;-58
2022/04/12 08:49:22;;;;;;;19.95;4.70;;;;;;;-0.99;93.41;100214.72;5023939;28;20260;-58
2022/04/12 08:51:52;;;;;;;16.13;4.18;;;;;;;-1.00;93.83;100223.25;5023389;28;20080;-58
2022/04/12 08:54:24;;;;;;;18.42;4.68;;;;;;;-0.97;93.53;100232.72;5023840;28;20054;-58
2022/04/12 08:56:54;;;;;;;16.45;5.00;;;;;;;-1.02;93.36;100230.00;5024297;28;20061;-58
2022/04/12 08:59:28;;;;;;;16.85;5.05;;;;;;;-0.95;93.57;100239.63;5027655;28;20045;-58
2022/04/12 09:01:59;;;;;;;21.98;4.75;;;;;;;-1.04;93.49;100229.09;5027843;28;20049;-58
2022/04/12 09:04:32;;;;;;;15.80;5.38;;;;;;;-0.98;93.58;100247.22;5028036;28;20060;-58
2022/04/12 09:07:05;;;;;;;11.60;3.85;;;;;;;-1.46;93.49;100165.44;5027587;28;20065;-58
2022/04/12 09:09:36;;;;;;;15.10;4.57;;;;;;;-1.00;93.56;100243.75;5027568;28;20052;-58
2022/04/12 09:12:09;;;;;;;13.48;4.20;;;;;;;-1.36;93.73;100190.53;5027922;28;20236;-58
2022/04/12 09:14:43;;;;;;;12.60;4.78;;;;;;;-1.51;93.37;100154.19;5027695;28;20077;-59
2022/04/12 09:17:14;;;;;;;10.20;4.07;;;;;;;-0.94;93.32;100253.31;5027546;28;20050;-58
2022/04/12 09:19:47;;;;;;;10.85;3.88;;;;;;;-0.93;93.51;100240.53;5027731;28;20060;-58
2022/04/12 09:22:20;;;;;;;13.38;5.40;;;;;;;-1.18;93.60;100207.28;5026867;28;20053;-59
2022/04/12 09:24:52;;;;;;;11.48;3.70;;;;;;;-0.94;93.45;100249.06;5027285;28;20108;-58
2022/04/12 09:27:24;;;;;;;11.63;3.80;;;;;;;-1.18;93.05;100217.53;5027282;28;20049;-58
2022/04/12 09:29:57;;;;;;;7.50;3.63;;;;;;;-1.04;93.18;100241.91;5027178;28;20076;-58
2022/04/12 09:32:30;;;;;;;8.40;3.22;;;;;;;-1.00;92.98;100263.38;5027659;28;20053;-59
2022/04/12 09:35:01;;;;;;;11.80;3.20;;;;;;;-1.01;93.01;100259.94;5027612;28;20092;-59
2022/04/12 09:37:33;;;;;;;14.43;4.30;;;;;;;-1.06;93.00;100242.69;5027066;28;20053;-58
2022/04/12 09:40:08;;;;;;;9.30;3.47;;;;;;;-1.28;93.14;100205.28;5027197;28;20089;-59
2022/04/12 09:42:44;;;;;;;8.43;3.22;;;;;;;-1.07;93.15;100249.53;5027279;28;20406;-59
2022/04/12 09:45:17;;;;;;;12.30;3.92;;;;;;;-1.06;92.99;100256.38;5026788;28;20123;-58
2022/04/12 09:47:49;;;;;;;16.70;4.47;;;;;;;-1.64;93.09;100164.91;5026189;28;20081;-59
2022/04/12 09:50:40;;;;;;;16.23;4.00;;;;;;;-1.07;93.14;100257.22;5026171;28;20046;-59
2022/04/12 09:53:11;;;;;;;7.07;3.38;;;;;;;-1.08;93.43;100266.59;5026633;28;20092;-58
2022/04/12 09:55:43;;;;;;;9.15;3.78;;;;;;;-1.14;93.37;100250.16;5026804;28;20259;-59
2022/04/12 09:58:15;;;;;;;11.23;3.70;;;;;;;-1.53;93.30;100173.75;5026615;28;20208;-59
2022/04/12 10:00:48;;;;;;;12.65;4.47;;;;;;;-1.67;93.32;100159.66;5026602;28;20423;-59
2022/04/12 10:03:20;;;;;;;15.13;4.40;;;;;;;-1.08;93.27;100255.47;5025852;28;20072;-58
2022/04/12 10:05:51;;;;;;;8.85;3.10;;;;;;;-1.14;93.36;100239.91;5025153;28;20342;-59
2022/04/12 10:08:26;;;;;;;8.40;3.25;;;;;;;-1.11;93.33;100252.81;5025897;28;20073;-59
2022/04/12 10:10:57;;;;;;;14.73;3.38;;;;;;;-1.10;93.36;100242.59;5027066;28;20108;-58
2022/04/12 10:13:30;;;;;;;15.27;4.32;;;;;;;-1.10;93.30;100251.97;5026412;28;20046;-58
2022/04/12 10:16:03;;;;;;;11.82;4.10;;;;;;;-1.12;93.05;100248.53;5026607;28;20077;-58
2022/04/12 10:18:35;;;;;;;6.43;3.05;;;;;;;-1.24;93.20;100240.44;5026769;28;20095;-59
2022/04/12 10:21:06;;;;;;;16.27;4.68;;;;;;;-1.28;93.64;100215.53;5026676;28;20132;-58
2022/04/12 10:23:37;;;;;;;19.85;5.13;;;;;;;-1.16;93.44;100241.53;5026201;28;20286;-58
2022/04/12 10:26:09;;;;;;;6.25;2.80;;;;;;;-1.20;93.73;100248.28;5025457;28;20061;-59
2022/04/12 10:28:41;;;;;;;9.75;4.07;;;;;;;-1.13;93.30;100262.16;5025788;28;20267;-59
2022/04/12 10:31:25;;;;;;;13.52;4.18;;;;;;;-1.19;93.59;100252.56;5025163;28;20127;-59
2022/04/12 10:34:14;;;;;;;19.65;4.93;;;;;;;-1.12;93.61;100254.50;5026342;28;20093;-59
2022/04/12 10:37:07;;;;;;;15.18;4.95;;;;;;;-1.13;93.28;100252.75;5026073;28;20057;-59
2022/04/12 10:40:06;;;;;;;20.55;5.20;;;;;;;-1.15;93.61;100263.78;5024457;28;20091;-59
2022/04/12 10:42:37;;;;;;;10.82;3.92;;;;;;;-1.15;93.64;100263.78;5025078;28;20112;-59
2022/04/12 10:45:08;;;;;;;12.18;4.28;;;;;;;-1.13;93.58;100267.28;5025093;28;20068;-59
2022/04/12 10:47:45;;;;;;;9.10;3.67;;;;;;;-1.15;93.69;100276.59;5024862;28;20355;-59
2022/04/12 10:50:16;;;;;;;13.57;4.85;;;;;;;-1.14;93.68;100276.66;5025098;28;20332;-59
2022/04/12 10:52:48;;;;;;;14.77;3.65;;;;;;;-1.74;93.64;100164.59;5024793;28;20061;-59
2022/04/12 10:55:22;;;;;;;10.75;3.65;;;;;;;-1.15;93.21;100268.91;5024953;28;20092;-59
2022/04/12 10:57:53;;;;;;;17.52;4.18;;;;;;;-1.15;93.20;100274.03;5024604;28;20120;-59
2022/04/12 11:00:25;;;;;;;10.57;3.60;;;;;;;-1.19;93.62;100264.53;5024988;28;20089;-59
2022/04/12 11:03:00;;;;;;;16.02;4.10;;;;;;;-1.15;93.65;100279.16;5024784;28;20062;-59
2022/04/12 11:05:55;;;;;;;15.82;4.00;;;;;;;-1.62;93.33;100220.47;5024655;28;20063;-59
2022/04/12 11:08:47;;;;;;;12.98;4.55;;;;;;;-1.15;93.46;100289.44;5024311;28;20060;-59
2022/04/12 11:11:23;;;;;;;9.85;4.07;;;;;;;-1.18;93.24;100289.34;5024495;28;20049;-59
2022/04/12 11:13:54;;;;;;;13.52;4.80;;;;;;;-1.17;93.36;100285.97;5023866;28;20060;-59
2022/04/12 11:16:28;;;;;;;12.68;4.82;;;;;;;-1.19;93.46;100303.00;5024410;28;20363;-58
2022/04/12 11:19:01;;;;;;;9.55;4.13;;;;;;;-1.20;93.49;100311.50;5024324;28;20057;-59
2022/04/12 11:22:04;;;;;;;12.50;3.75;;;;;;;-1.27;93.56;100304.41;5024309;28;20072;-59
2022/04/12 11:24:35;;;;;;;11.60;3.83;;;;;;;-1.20;93.72;100314.06;5024240;28;20083;-59
2022/04/12 11:27:08;;;;;;;6.82;3.20;;;;;;;-1.23;93.56;100317.38;5023465;28;20389;-59
2022/04/12 11:29:40;;;;;;;16.55;3.85;;;;;;;-1.24;93.37;100317.34;5023976;28;20133;-59
2022/04/12 11:32:12;;;;;;;10.43;3.70;;;;;;;-1.29;93.29;100306.09;5024522;28;20125;-59
2022/04/12 11:34:44;;;;;;;11.18;3.13;;;;;;;-1.24;93.41;100319.91;5024643;28;20092;-59
2022/04/12 11:37:15;;;;;;;13.10;4.05;;;;;;;-1.26;93.70;100311.31;5024203;28;20064;-58
2022/04/12 11:39:52;;;;;;;9.95;3.20;;;;;;;-1.28;93.60;100310.38;5024092;28;20076;-59
2022/04/12 11:42:22;;;;;;;17.48;3.67;;;;;;;-1.32;93.47;100317.97;5024001;28;20434;-59
2022/04/12 11:44:54;;;;;;;13.10;3.63;;;;;;;-1.32;93.51;100306.88;5023932;28;20062;-59
2022/04/12 11:47:32;;;;;;;12.75;4.15;;;;;;;-1.35;93.46;100312.75;5022820;28;20340;-59